createdAt,value
2023-01-01T00:00:24.304Z,100549.81
2023-01-01T00:02:51.507Z,100552.34
2023-01-01T00:05:19.867Z,100560.81
2023-01-01T00:07:47.135Z,100549.44
2023-01-01T00:10:29.481Z,100563.91
2023-01-01T00:12:57.199Z,100564.94
2023-01-01T00:15:25.697Z,100551.09
2023-01-01T00:17:53.047Z,100561.31
2023-01-01T00:20:20.903Z,100574.06
2023-01-01T00:22:57.046Z,100564.59
2023-01-01T00:25:26.162Z,100567.25
2023-01-01T00:27:53.391Z,100571.00
2023-01-01T00:30:20.642Z,100552.78
2023-01-01T00:32:55.963Z,100571.59
2023-01-01T00:35:24.236Z,100574.75
2023-01-01T00:37:51.461Z,100569.44
2023-01-01T00:40:21.081Z,100572.09
2023-01-01T00:42:48.244Z,100554.31
2023-01-01T00:45:20.964Z,100565.16
2023-01-01T00:47:49.275Z,100573.06
2023-01-01T00:50:16.619Z,100560.81
2023-01-01T00:52:44.220Z,100561.00
2023-01-01T00:55:11.868Z,100581.00
2023-01-01T00:57:39.138Z,100580.91
2023-01-01T01:00:07.454Z,100568.38
2023-01-01T01:02:34.973Z,100573.28
2023-01-01T01:05:03.883Z,100576.22
2023-01-01T01:07:36.559Z,100590.91
2023-01-01T01:10:04.252Z,100585.81
2023-01-01T01:12:31.701Z,100584.94
2023-01-01T01:14:58.910Z,100585.97
2023-01-01T01:17:26.134Z,100587.25
2023-01-01T01:19:53.353Z,100596.56
2023-01-01T01:22:27.837Z,100594.25
2023-01-01T01:24:56.209Z,100595.22
2023-01-01T01:27:23.598Z,100588.34
2023-01-01T01:29:50.782Z,100598.53
2023-01-01T01:32:18.007Z,100599.03
2023-01-01T01:34:45.240Z,100597.56
2023-01-01T01:37:12.646Z,100606.81
2023-01-01T01:39:40.017Z,100611.66
2023-01-01T01:42:07.614Z,100606.34
2023-01-01T01:44:47.637Z,100602.69
2023-01-01T01:47:31.266Z,100592.69
2023-01-01T01:50:16.987Z,100597.00
2023-01-01T01:52:57.476Z,100587.41
2023-01-01T01:55:26.633Z,100589.97
2023-01-01T01:57:53.743Z,100600.56
2023-01-01T02:00:21.000Z,100597.06
2023-01-01T02:03:02.557Z,100605.44
2023-01-01T02:05:30.088Z,100608.84
2023-01-01T02:07:58.819Z,100604.00
2023-01-01T02:10:27.720Z,100609.69
2023-01-01T02:12:55.016Z,100608.84
2023-01-01T02:15:24.103Z,100608.84
2023-01-01T02:18:00.769Z,100616.94
2023-01-01T02:20:43.257Z,100614.63
2023-01-01T02:23:24.923Z,100621.81
2023-01-01T02:26:05.580Z,100606.69
2023-01-01T02:28:57.088Z,100610.03
2023-01-01T02:31:28.429Z,100607.03
2023-01-01T02:33:59.538Z,100607.94
2023-01-01T02:36:27.647Z,100610.00
2023-01-01T02:38:57.186Z,100603.06
2023-01-01T02:41:29.675Z,100605.78
2023-01-01T02:46:34.206Z,100598.38
2023-01-01T02:49:07.951Z,100583.69
2023-01-01T02:51:40.058Z,100589.56
2023-01-01T02:54:19.834Z,100599.25
2023-01-01T02:57:01.037Z,100581.50
2023-01-01T03:00:15.868Z,100590.47
2023-01-01T03:03:06.654Z,100599.25
2023-01-01T03:06:04.493Z,100604.81
2023-01-01T03:08:44.399Z,100594.53
2023-01-01T03:11:14.986Z,100594.16
2023-01-01T03:13:57.898Z,100602.25
2023-01-01T03:16:26.442Z,100602.72
2023-01-01T03:19:10.994Z,100604.13
2023-01-01T03:21:45.926Z,100595.16
2023-01-01T03:24:27.148Z,100595.66
2023-01-01T03:27:00.304Z,100593.84
2023-01-01T03:29:30.344Z,100601.16
2023-01-01T03:31:59.030Z,100598.50
2023-01-01T03:34:35.674Z,100586.13
2023-01-01T03:37:07.317Z,100594.00
2023-01-01T03:39:43.689Z,100596.19
2023-01-01T03:42:23.788Z,100592.25
2023-01-01T03:45:07.347Z,100605.69
2023-01-01T03:47:34.540Z,100607.44
2023-01-01T03:50:03.373Z,100614.47
2023-01-01T03:53:02.945Z,100615.81
2023-01-01T03:55:37.353Z,100618.31
2023-01-01T03:58:15.032Z,100623.06
2023-01-01T04:00:50.525Z,100634.34
2023-01-01T04:03:23.799Z,100635.50
2023-01-01T04:05:51.038Z,100637.56
2023-01-01T04:08:18.686Z,100636.34
2023-01-01T04:10:52.143Z,100646.19
2023-01-01T04:13:19.423Z,100650.25
2023-01-01T04:15:46.760Z,100650.34
2023-01-01T04:18:14.065Z,100649.44
2023-01-01T04:20:41.295Z,100655.94
2023-01-01T04:23:08.638Z,100655.06
2023-01-01T04:25:36.126Z,100655.06
2023-01-01T04:28:03.583Z,100660.44
2023-01-01T04:30:31.240Z,100662.78
2023-01-01T04:32:58.488Z,100658.47
2023-01-01T04:35:25.699Z,100666.66
2023-01-01T04:37:53.060Z,100657.28
2023-01-01T04:40:20.282Z,100661.53
2023-01-01T04:42:47.509Z,100653.44
2023-01-01T04:45:15.367Z,100664.94
2023-01-01T04:47:42.739Z,100664.00
2023-01-01T04:50:10.115Z,100667.38
2023-01-01T04:52:37.470Z,100674.31
2023-01-01T04:55:04.919Z,100683.66
2023-01-01T04:57:32.171Z,100666.06
2023-01-01T04:59:59.433Z,100668.19
2023-01-01T05:02:27.419Z,100662.59
2023-01-01T05:04:54.835Z,100671.16
2023-01-01T05:07:22.068Z,100670.53
2023-01-01T05:09:49.522Z,100666.41
2023-01-01T05:12:16.857Z,100670.06
2023-01-01T05:14:44.088Z,100670.75
2023-01-01T05:17:11.291Z,100668.47
2023-01-01T05:19:38.549Z,100673.25
2023-01-01T05:22:10.682Z,100673.50
2023-01-01T05:24:38.719Z,100668.31
2023-01-01T05:27:06.068Z,100671.66
2023-01-01T05:29:33.316Z,100670.56
2023-01-01T05:32:00.541Z,100677.50
2023-01-01T05:36:56.111Z,100665.13
2023-01-01T05:39:23.377Z,100660.78
2023-01-01T05:41:51.567Z,100671.22
2023-01-01T05:44:19.423Z,100669.56
2023-01-01T05:46:46.694Z,100673.66
2023-01-01T05:49:13.945Z,100683.56
2023-01-01T05:54:07.717Z,100689.72
2023-01-01T05:56:34.988Z,100687.09
2023-01-01T05:59:02.255Z,100687.22
2023-01-01T06:01:30.843Z,100693.28
2023-01-01T06:03:59.233Z,100689.09
2023-01-01T06:06:29.126Z,100691.88
2023-01-01T06:09:04.833Z,100689.22
2023-01-01T06:11:33.536Z,100678.94
2023-01-01T06:14:01.405Z,100685.09
2023-01-01T06:16:31.849Z,100692.81
2023-01-01T06:18:59.971Z,100701.53
2023-01-01T06:21:28.690Z,100708.59
2023-01-01T06:23:57.809Z,100718.84
2023-01-01T06:26:28.538Z,100715.69
2023-01-01T06:28:56.650Z,100714.03
2023-01-01T06:31:24.012Z,100716.19
2023-01-01T06:33:51.555Z,100727.63
2023-01-01T06:36:20.618Z,100721.53
2023-01-01T06:38:50.592Z,100717.91
2023-01-01T06:41:20.239Z,100724.47
2023-01-01T06:43:47.837Z,100730.72
2023-01-01T06:46:26.001Z,100725.97
2023-01-01T06:48:58.696Z,100731.41
2023-01-01T06:51:36.251Z,100736.72
2023-01-01T06:54:04.994Z,100735.84
2023-01-01T06:56:32.691Z,100730.31
2023-01-01T06:59:00.254Z,100744.28
2023-01-01T07:01:29.908Z,100747.72
2023-01-01T07:04:02.633Z,100749.53
2023-01-01T07:06:31.340Z,100746.50
2023-01-01T07:08:58.550Z,100756.72
2023-01-01T07:11:26.093Z,100760.28
2023-01-01T07:13:53.417Z,100756.19
2023-01-01T07:16:20.721Z,100768.03
2023-01-01T07:18:49.183Z,100756.03
2023-01-01T07:21:33.529Z,100769.97
2023-01-01T07:24:05.525Z,100772.66
2023-01-01T07:26:33.504Z,100775.13
2023-01-01T07:29:06.811Z,100787.28
2023-01-01T07:31:36.838Z,100770.47
2023-01-01T07:34:05.217Z,100777.41
2023-01-01T07:36:32.409Z,100770.31
2023-01-01T07:38:59.599Z,100786.00
2023-01-01T07:41:26.755Z,100785.75
2023-01-01T07:43:53.922Z,100790.66
2023-01-01T07:46:21.125Z,100804.94
2023-01-01T07:48:48.276Z,100801.34
2023-01-01T07:51:15.496Z,100810.28
2023-01-01T07:53:42.671Z,100808.59
2023-01-01T07:56:09.924Z,100808.59
2023-01-01T07:58:40.441Z,100806.50
2023-01-01T08:01:13.308Z,100807.13
2023-01-01T08:03:40.714Z,100828.38
2023-01-01T08:06:12.344Z,100817.00
2023-01-01T08:08:39.844Z,100825.81
2023-01-01T08:11:07.007Z,100816.78
2023-01-01T08:13:34.176Z,100814.22
2023-01-01T08:16:01.429Z,100815.94
2023-01-01T08:18:28.680Z,100826.38
2023-01-01T08:20:57.399Z,100826.25
2023-01-01T08:23:24.665Z,100833.16
2023-01-01T08:25:51.912Z,100842.13
2023-01-01T08:28:20.356Z,100860.56
2023-01-01T08:30:47.511Z,100850.84
2023-01-01T08:33:14.663Z,100855.97
2023-01-01T08:35:45.598Z,100859.34
2023-01-01T08:38:16.166Z,100848.88
2023-01-01T08:40:43.375Z,100851.38
2023-01-01T08:43:10.530Z,100865.47
2023-01-01T08:45:37.707Z,100858.03
2023-01-01T08:48:05.391Z,100867.53
2023-01-01T08:50:32.536Z,100865.69
2023-01-01T08:53:00.698Z,100865.69
2023-01-01T08:55:27.864Z,100879.72
2023-01-01T08:57:55.180Z,100874.50
2023-01-01T09:00:24.808Z,100871.69
2023-01-01T09:02:52.748Z,100873.50
2023-01-01T09:05:19.967Z,100878.94
2023-01-01T09:07:50.375Z,100902.03
2023-01-01T09:10:17.618Z,100895.63
2023-01-01T09:12:44.807Z,100905.53
2023-01-01T09:15:16.067Z,100896.50
2023-01-01T09:17:45.456Z,100907.09
2023-01-01T09:20:12.879Z,100922.00
2023-01-01T09:22:40.039Z,100926.03
2023-01-01T09:25:07.684Z,100911.00
2023-01-01T09:27:34.936Z,100918.09
2023-01-01T09:30:02.459Z,100928.53
2023-01-01T09:32:29.872Z,100920.75
2023-01-01T09:34:57.513Z,100929.50
2023-01-01T09:37:24.881Z,100909.84
2023-01-01T09:39:52.740Z,100908.13
2023-01-01T09:42:28.023Z,100897.44
2023-01-01T09:45:28.289Z,100915.94
2023-01-01T09:48:03.587Z,100917.72
2023-01-01T09:50:35.689Z,100915.47
2023-01-01T09:53:08.130Z,100930.25
2023-01-01T09:55:42.003Z,100928.53
2023-01-01T09:58:11.407Z,100930.47
2023-01-01T10:00:42.464Z,100947.31
2023-01-01T10:03:26.270Z,100942.56
2023-01-01T10:06:01.554Z,100944.88
2023-01-01T10:08:57.503Z,100948.16
2023-01-01T10:11:40.771Z,100949.81
2023-01-01T10:14:35.416Z,100948.06
2023-01-01T10:17:06.737Z,100943.72
2023-01-01T10:19:43.388Z,100963.31
2023-01-01T10:22:23.940Z,100948.88
2023-01-01T10:24:56.725Z,100964.25
2023-01-01T10:27:40.713Z,100959.78
2023-01-01T10:30:22.378Z,100957.69
2023-01-01T10:32:51.196Z,100973.44
2023-01-01T10:35:26.767Z,100969.78
2023-01-01T10:38:01.038Z,100975.78
2023-01-01T10:40:29.588Z,100971.50
2023-01-01T10:42:58.751Z,100978.00
2023-01-01T10:45:29.886Z,100974.88
2023-01-01T10:48:12.677Z,100963.53
2023-01-01T10:50:51.703Z,100961.88
2023-01-01T10:53:28.440Z,100954.34
2023-01-01T10:56:14.745Z,100947.16
2023-01-01T10:58:50.933Z,100954.09
2023-01-01T11:01:18.173Z,100975.00
2023-01-01T11:04:02.013Z,100985.53
2023-01-01T11:06:33.341Z,100983.75
2023-01-01T11:09:03.877Z,100977.16
2023-01-01T11:11:34.339Z,100990.38
2023-01-01T11:14:06.159Z,100986.56
2023-01-01T11:16:33.897Z,101002.63
2023-01-01T11:19:02.969Z,100999.25
2023-01-01T11:21:30.317Z,101005.59
2023-01-01T11:24:15.974Z,101012.25
2023-01-01T11:26:44.307Z,101004.59
2023-01-01T11:29:27.815Z,101002.63
2023-01-01T11:31:56.572Z,100998.72
2023-01-01T11:34:38.345Z,100989.59
2023-01-01T11:37:11.649Z,100982.72
2023-01-01T11:39:43.267Z,100986.94
2023-01-01T11:42:17.902Z,100987.19
2023-01-01T11:44:48.671Z,100990.69
2023-01-01T11:47:30.886Z,101003.19
2023-01-01T11:50:03.566Z,101010.13
2023-01-01T11:52:40.451Z,100999.59
2023-01-01T11:55:25.959Z,101006.47
2023-01-01T11:58:19.325Z,101007.56
2023-01-01T12:00:49.483Z,101014.50
2023-01-01T12:03:31.417Z,101008.31
2023-01-01T12:06:23.933Z,101020.66
2023-01-01T12:09:14.613Z,101018.56
2023-01-01T12:12:06.437Z,101014.50
2023-01-01T12:15:20.468Z,101015.34
2023-01-01T12:18:22.257Z,101025.75
2023-01-01T12:21:06.315Z,101027.84
2023-01-01T12:23:33.536Z,101031.09
2023-01-01T12:26:25.533Z,101030.13
2023-01-01T12:29:19.388Z,101030.03
2023-01-01T12:32:02.989Z,101015.59
2023-01-01T12:35:03.515Z,101011.22
2023-01-01T12:37:52.423Z,101012.56
2023-01-01T12:40:51.578Z,101002.94
2023-01-01T12:43:31.913Z,101008.25
2023-01-01T12:46:23.270Z,100997.09
2023-01-01T12:49:33.506Z,100995.28
2023-01-01T12:52:20.320Z,100997.25
2023-01-01T12:55:24.204Z,101003.25
2023-01-01T12:58:02.766Z,101002.34
2023-01-01T13:00:33.120Z,101000.69
2023-01-01T13:03:05.507Z,101005.84
2023-01-01T13:05:40.344Z,101013.88
2023-01-01T13:08:08.932Z,101015.44
2023-01-01T13:10:42.314Z,101004.31
2023-01-01T13:13:14.015Z,101006.47
2023-01-01T13:15:41.557Z,101008.16
2023-01-01T13:18:20.567Z,101014.56
2023-01-01T13:21:02.008Z,101020.81
2023-01-01T13:23:33.369Z,101035.34
2023-01-01T13:26:18.816Z,101033.94
2023-01-01T13:28:57.946Z,101043.59
2023-01-01T13:31:48.072Z,101045.63
2023-01-01T13:34:35.623Z,101050.00
2023-01-01T13:37:14.707Z,101058.72
2023-01-01T13:40:01.605Z,101068.28
2023-01-01T13:42:44.757Z,101083.00
2023-01-01T13:46:09.394Z,101082.84
2023-01-01T13:49:02.673Z,101085.69
2023-01-01T13:52:06.019Z,101091.16
2023-01-01T13:54:57.543Z,101097.88
2023-01-01T13:57:47.480Z,101095.31
2023-01-01T14:00:28.214Z,101102.06
2023-01-01T14:03:07.877Z,101100.38
2023-01-01T14:05:45.049Z,101111.13
2023-01-01T14:08:32.438Z,101116.66
2023-01-01T14:11:03.149Z,101115.41
2023-01-01T14:13:39.178Z,101117.28
2023-01-01T14:16:10.679Z,101109.25
2023-01-01T14:18:50.900Z,101105.81
2023-01-01T14:21:19.825Z,101107.69
2023-01-01T14:24:07.574Z,101094.00
2023-01-01T14:26:38.363Z,101096.91
2023-01-01T14:29:23.060Z,101098.69
2023-01-01T14:31:50.511Z,101108.56
2023-01-01T14:34:32.149Z,101105.56
2023-01-01T14:37:01.428Z,101100.97
2023-01-01T14:39:30.693Z,101112.88
2023-01-01T14:41:58.948Z,101112.72
2023-01-01T14:44:28.180Z,101122.75
2023-01-01T14:46:55.315Z,101137.47
2023-01-01T14:49:50.508Z,101125.13
2023-01-01T14:52:21.312Z,101135.38
2023-01-01T14:54:48.499Z,101127.56
2023-01-01T14:57:16.592Z,101126.06
2023-01-01T14:59:47.659Z,101137.66
2023-01-01T15:02:15.134Z,101129.03
2023-01-01T15:04:42.442Z,101136.34
2023-01-01T15:07:20.050Z,101138.19
2023-01-01T15:09:47.183Z,101154.38
2023-01-01T15:12:14.707Z,101159.88
2023-01-01T15:14:42.559Z,101164.47
2023-01-01T15:17:10.580Z,101166.66
2023-01-01T15:19:41.039Z,101160.50
2023-01-01T15:22:08.963Z,101155.94
2023-01-01T15:24:37.788Z,101170.97
2023-01-01T15:27:05.538Z,101170.28
2023-01-01T15:29:34.165Z,101173.41
2023-01-01T15:32:02.181Z,101167.44
2023-01-01T15:34:31.133Z,101165.38
2023-01-01T15:37:14.393Z,101172.59
2023-01-01T15:40:00.767Z,101172.84
2023-01-01T15:42:30.741Z,101186.41
2023-01-01T15:45:08.072Z,101187.81
2023-01-01T15:47:37.873Z,101188.03
2023-01-01T15:50:09.081Z,101194.31
2023-01-01T15:52:36.424Z,101195.50
2023-01-01T15:55:04.399Z,101194.06
2023-01-01T15:57:31.573Z,101197.88
2023-01-01T15:59:58.718Z,101198.97
2023-01-01T16:02:26.028Z,101214.97
2023-01-01T16:04:53.277Z,101198.38
2023-01-01T16:07:21.048Z,101203.06
2023-01-01T16:09:53.402Z,101205.69
2023-01-01T16:12:24.223Z,101211.00
2023-01-01T16:14:52.397Z,101194.13
2023-01-01T16:17:19.751Z,101199.47
2023-01-01T16:19:46.929Z,101191.41
2023-01-01T16:22:15.737Z,101195.81
2023-01-01T16:24:43.927Z,101195.00
2023-01-01T16:27:11.369Z,101204.75
2023-01-01T16:29:40.337Z,101202.38
2023-01-01T16:32:13.781Z,101198.25
2023-01-01T16:34:40.902Z,101190.50
2023-01-01T16:37:08.158Z,101203.84
2023-01-01T16:39:35.305Z,101195.91
2023-01-01T16:42:02.441Z,101202.19
2023-01-01T16:44:29.569Z,101203.03
2023-01-01T16:46:56.806Z,101211.66
2023-01-01T16:49:24.067Z,101216.63
2023-01-01T16:51:51.394Z,101223.59
2023-01-01T16:54:18.540Z,101229.63
2023-01-01T16:56:45.661Z,101234.91
2023-01-01T16:59:12.883Z,101234.91
2023-01-01T17:01:40.216Z,101236.72
2023-01-01T17:04:07.493Z,101241.91
2023-01-01T17:06:34.926Z,101245.50
2023-01-01T17:09:02.182Z,101241.91
2023-01-01T17:11:29.374Z,101240.22
2023-01-01T17:13:58.028Z,101242.06
2023-01-01T17:16:29.109Z,101251.75
2023-01-01T17:19:16.247Z,101247.53
2023-01-01T17:21:45.023Z,101239.72
2023-01-01T17:24:12.289Z,101241.50
2023-01-01T17:26:39.519Z,101246.88
2023-01-01T17:29:07.562Z,101239.81
2023-01-01T17:31:35.021Z,101238.13
2023-01-01T17:34:02.254Z,101244.38
2023-01-01T17:36:29.453Z,101245.31
2023-01-01T17:38:56.671Z,101235.81
2023-01-01T17:41:23.913Z,101246.47
2023-01-01T17:43:51.445Z,101235.13
2023-01-01T17:46:19.601Z,101228.22
2023-01-01T17:48:47.047Z,101236.28
2023-01-01T17:51:15.228Z,101235.53
2023-01-01T17:53:42.483Z,101235.53
2023-01-01T17:56:12.211Z,101239.03
2023-01-01T17:58:39.745Z,101224.16
2023-01-01T18:01:12.708Z,101221.69
2023-01-01T18:03:40.559Z,101230.38
2023-01-01T18:06:07.882Z,101233.88
2023-01-01T18:08:35.040Z,101236.59
2023-01-01T18:11:02.206Z,101227.91
2023-01-01T18:13:29.409Z,101229.56
2023-01-01T18:16:00.201Z,101228.59
2023-01-01T18:18:27.563Z,101221.63
2023-01-01T18:21:00.892Z,101227.50
2023-01-01T18:23:31.362Z,101226.38
2023-01-01T18:26:01.877Z,101230.09
2023-01-01T18:28:29.264Z,101225.19
2023-01-01T18:30:56.510Z,101234.09
2023-01-01T18:33:23.647Z,101236.91
2023-01-01T18:35:50.808Z,101239.44
2023-01-01T18:38:17.914Z,101235.06
2023-01-01T18:40:47.598Z,101245.59
2023-01-01T18:43:15.994Z,101244.09
2023-01-01T18:45:43.216Z,101233.69
2023-01-01T18:48:13.367Z,101244.31
2023-01-01T18:50:40.530Z,101256.72
2023-01-01T18:53:19.764Z,101255.03
2023-01-01T18:55:47.111Z,101257.88
2023-01-01T18:58:16.331Z,101253.09
2023-01-01T19:00:43.577Z,101252.38
2023-01-01T19:03:14.582Z,101258.63
2023-01-01T19:05:41.764Z,101258.28
2023-01-01T19:08:08.821Z,101257.34
2023-01-01T19:10:38.140Z,101261.66
2023-01-01T19:13:09.897Z,101269.31
2023-01-01T19:15:37.129Z,101268.22
2023-01-01T19:18:09.218Z,101263.97
2023-01-01T19:20:36.335Z,101262.19
2023-01-01T19:23:03.475Z,101256.06
2023-01-01T19:25:40.937Z,101262.63
2023-01-01T19:28:16.853Z,101257.31
2023-01-01T19:30:44.451Z,101254.63
2023-01-01T19:33:11.842Z,101249.31
2023-01-01T19:35:38.964Z,101250.97
2023-01-01T19:38:06.081Z,101251.53
2023-01-01T19:40:33.192Z,101242.63
2023-01-01T19:43:01.624Z,101249.97
2023-01-01T19:45:28.768Z,101247.09
2023-01-01T19:47:55.957Z,101240.94
2023-01-01T19:50:23.122Z,101247.19
2023-01-01T19:52:50.237Z,101240.13
2023-01-01T19:55:17.364Z,101245.59
2023-01-01T19:57:44.457Z,101237.75
2023-01-01T20:00:11.689Z,101227.06
2023-01-01T20:02:47.765Z,101219.75
2023-01-01T20:05:15.524Z,101213.47
2023-01-01T20:07:42.717Z,101222.22
2023-01-01T20:10:09.917Z,101212.22
2023-01-01T20:12:37.043Z,101210.78
2023-01-01T20:15:04.398Z,101209.72
2023-01-01T20:17:31.624Z,101207.19
2023-01-01T20:19:58.760Z,101214.97
2023-01-01T20:22:25.885Z,101218.75
2023-01-01T20:24:53.003Z,101207.28
2023-01-01T20:27:24.490Z,101208.94
2023-01-01T20:29:51.881Z,101207.94
2023-01-01T20:32:20.117Z,101206.09
2023-01-01T20:34:47.292Z,101205.66
2023-01-01T20:37:33.100Z,101191.66
2023-01-01T20:40:00.231Z,101196.69
2023-01-01T20:42:28.086Z,101191.34
2023-01-01T20:44:55.616Z,101191.53
2023-01-01T20:47:22.745Z,101192.72
2023-01-01T20:49:50.098Z,101189.22
2023-01-01T20:52:17.270Z,101196.94
2023-01-01T20:54:44.399Z,101200.31
2023-01-01T20:57:11.555Z,101191.53
2023-01-01T20:59:39.061Z,101197.47
2023-01-01T21:02:07.924Z,101205.59
2023-01-01T21:04:38.457Z,101200.88
2023-01-01T21:07:06.830Z,101192.81
2023-01-01T21:09:33.981Z,101175.34
2023-01-01T21:12:01.956Z,101182.22
2023-01-01T21:14:29.117Z,101176.31
2023-01-01T21:16:56.366Z,101166.91
2023-01-01T21:19:26.926Z,101163.72
2023-01-01T21:21:55.258Z,101183.00
2023-01-01T21:24:23.549Z,101180.47
2023-01-01T21:26:51.703Z,101183.97
2023-01-01T21:29:22.755Z,101188.31
2023-01-01T21:31:50.994Z,101196.34
2023-01-01T21:34:25.225Z,101187.41
2023-01-01T21:36:53.335Z,101186.47
2023-01-01T21:39:21.759Z,101185.66
2023-01-01T21:41:48.911Z,101188.88
2023-01-01T21:44:16.036Z,101200.84
2023-01-01T21:46:47.092Z,101208.56
2023-01-01T21:49:18.706Z,101211.34
2023-01-01T21:51:50.204Z,101193.66
2023-01-01T21:54:19.097Z,101192.03
2023-01-01T21:56:49.799Z,101204.47
2023-01-01T21:59:26.206Z,101195.16
2023-01-01T22:01:54.263Z,101196.63
2023-01-01T22:04:25.413Z,101197.59
2023-01-01T22:06:58.053Z,101199.63
2023-01-01T22:09:29.178Z,101194.31
2023-01-01T22:11:57.044Z,101196.69
2023-01-01T22:14:31.910Z,101190.44
2023-01-01T22:16:59.086Z,101200.81
2023-01-01T22:19:26.743Z,101194.16
2023-01-01T22:21:53.898Z,101203.00
2023-01-01T22:24:25.783Z,101192.03
2023-01-01T22:26:52.939Z,101192.50
2023-01-01T22:29:22.301Z,101188.69
2023-01-01T22:31:51.649Z,101194.72
2023-01-01T22:34:20.143Z,101175.19
2023-01-01T22:36:47.423Z,101185.78
2023-01-01T22:39:16.764Z,101188.69
2023-01-01T22:41:43.927Z,101187.63
2023-01-01T22:44:11.077Z,101181.50
2023-01-01T22:46:39.542Z,101178.66
2023-01-01T22:49:11.283Z,101182.53
2023-01-01T22:51:40.432Z,101171.28
2023-01-01T22:54:07.554Z,101155.53
2023-01-01T22:56:34.685Z,101154.63
2023-01-01T22:59:01.827Z,101161.97
2023-01-01T23:01:29.012Z,101154.97
2023-01-01T23:03:56.228Z,101135.44
2023-01-01T23:06:23.690Z,101141.66
2023-01-01T23:08:50.920Z,101136.41
2023-01-01T23:11:21.297Z,101129.38
2023-01-01T23:14:07.545Z,101123.06
2023-01-01T23:16:34.892Z,101125.66
2023-01-01T23:19:02.237Z,101122.59
2023-01-01T23:21:29.363Z,101117.31
2023-01-01T23:23:56.664Z,101111.63
2023-01-01T23:26:24.223Z,101103.66
2023-01-01T23:28:51.531Z,101102.00
2023-01-01T23:31:24.825Z,101104.41
2023-01-01T23:33:54.604Z,101095.38
2023-01-01T23:36:21.991Z,101093.09
2023-01-01T23:38:49.127Z,101090.72
2023-01-01T23:41:16.262Z,101086.31
2023-01-01T23:43:44.127Z,101069.47
2023-01-01T23:46:11.926Z,101074.38
2023-01-01T23:48:39.049Z,101072.59
2023-01-01T23:51:06.171Z,101068.00
2023-01-01T23:53:33.617Z,101065.34
2023-01-01T23:56:00.824Z,101056.06
2023-01-01T23:58:27.948Z,101046.34
